SBCFSBIL

Guest
Details From SBCF - Tancredo Neves
To SBIL - Ilheus
Flight Number -
Tags generated
Created
Modified
Stats Distance 406 nm / 751 km
Max Altitude 23,500 ft / 7,163 m
Waypoints 6
Social Downloads 0
Likes 0
Share VATSIM

Download

Looking for another format? Having issues loading an existing format? Contact us
Advertisement - Login to hide

Notes

Basic altitude profile: - Ascent Rate: 2500ft/min - Ascent Speed: 250kts - Cruise Altitude: 35000ft - Cruise Speed: 420kts - Descent Rate: 1500ft/min - Descent Speed: 250kts Options: - Use NATs: yes - Use PACOTS: yes - Use low airways: yes - Use high airways: yes

Route

SBCF RALYT W1 YLH SBIL

ID Type Via Altitude Latitude Longitude Leg Dist Tot Dist Heading (true) Name
O SBCF APT - 0 ft / 0 m -19.63376˚ -43.96885˚ - 0 nm - Tancredo Neves
RALYT FIX - 13,300 ft / 4,054 m -19.09883˚ -43.54517˚ 40 nm 40 nm 37° / 37° -
ARUBI FIX W1 (AWY-LO) 23,500 ft / 7,163 m -17.15933˚ -41.46683˚ 166 nm 206 nm 46° / 45° -
DENDE FIX W1 (AWY-LO) 8,600 ft / 2,621 m -15.28733˚ -39.52200˚ 158 nm 365 nm 45° / 45° -
YLH NDB W1 (AWY-LO) 7,500 ft / 2,286 m -14.81217˚ -39.03667˚ 40 nm 405 nm 45° / 45° ILHEUS NDB
O SBIL APT - 0 ft / 0 m -14.81596˚ -39.03320˚ 0 nm 405 nm 139° / 139° Ilheus

Altitude Profile

Advertisement - Login to hide

Weather


0- 5 10 15 20 25 30 35+ Temperature / ° C

Clouds and Precipitation
Forecast for 2018-05-22 00:00 UTC. Updated 3 hours ago

Ground ~20,000 ft ~40,000 ft Winds

SBCF

Details ICAO SBCF (CNF)
Name Tancredo Neves
Region Brazil
Timezone America/Sao_Paulo (UTC-3.0)
Stats Elevation 2,715 ft / 828 m (AMSL)
Location -19.633758° -43.968854°
Runways 1
Magnetic Variation 22.844° W

METAR

SBCF 220200Z 18002KT CAVOK 12/07 Q1021

Decode

TAF

TAF SBCF 212200Z 2200/2224 03005KT CAVOK TN07/2210Z TX23/2218Z PROB40 TEMPO 2206/2212 0900 FG NSC BECMG 2212/2214 01005KT RMK PDB

Decode

Departure Runways

ID Width Length Bearing (true) Bearing (mag) Surface Threshold Offset Overrun Length
16 148 ft / 45 m 9,872 ft / 3,009 m 138.97° 161.81° Asphalt 0 ft / 0 m 203 ft / 62 m
34 148 ft / 45 m 9,872 ft / 3,009 m 318.96° 341.80° Asphalt 0 ft / 0 m 203 ft / 62 m

SBIL

Details ICAO SBIL (IOS)
Name Ilheus
Region Brazil
Timezone America/Bahia (UTC-3.0)
Stats Elevation 15 ft / 5 m (AMSL)
Location -14.815964° -39.033197°
Runways 1
Magnetic Variation 23.700° W

METAR

Not found

TAF

TAF SBIL 212200Z 2200/2212 26005KT 9000 SCT020 TX27/2200Z TN23/2207Z PROB30 TEMPO 2207/2210 7000 SHRA SCT015 SCT020 RMK PCN

Decode

Destination Runways

ID Width Length Bearing (true) Bearing (mag) Surface Threshold Offset Overrun Length
11 148 ft / 45 m 5,127 ft / 1,563 m 88.35° 112.05° Asphalt 0 ft / 0 m 190 ft / 58 m
29 148 ft / 45 m 5,127 ft / 1,563 m 268.34° 292.04° Asphalt 0 ft / 0 m 160 ft / 49 m

Popular Alternatives